sensor_id;sensor_type;location;lat;lon;timestamp;P1;durP1;ratioP1;P2;durP2;ratioP2
48596;SDS011;34382;43.160;24.148;2023-04-24T00:00:37;9.95;;;6.00;;
48596;SDS011;34382;43.160;24.148;2023-04-24T00:02:12;13.13;;;6.07;;
48596;SDS011;34382;43.160;24.148;2023-04-24T00:03:44;11.23;;;5.78;;
48596;SDS011;34382;43.160;24.148;2023-04-24T00:05:17;11.55;;;6.18;;
48596;SDS011;34382;43.160;24.148;2023-04-24T00:06:49;10.63;;;5.90;;
48596;SDS011;34382;43.160;24.148;2023-04-24T00:08:25;10.93;;;6.38;;
48596;SDS011;34382;43.160;24.148;2023-04-24T00:09:57;10.90;;;5.70;;
48596;SDS011;34382;43.160;24.148;2023-04-24T00:11:30;10.18;;;6.07;;
48596;SDS011;34382;43.160;24.148;2023-04-24T00:13:02;10.85;;;5.60;;
48596;SDS011;34382;43.160;24.148;2023-04-24T00:14:37;10.43;;;6.00;;
48596;SDS011;34382;43.160;24.148;2023-04-24T00:16:09;10.32;;;6.05;;
48596;SDS011;34382;43.160;24.148;2023-04-24T00:17:41;12.77;;;5.95;;
48596;SDS011;34382;43.160;24.148;2023-04-24T00:19:13;12.55;;;6.03;;
48596;SDS011;34382;43.160;24.148;2023-04-24T00:20:45;8.52;;;5.20;;
48596;SDS011;34382;43.160;24.148;2023-04-24T00:22:18;11.15;;;6.40;;
48596;SDS011;34382;43.160;24.148;2023-04-24T00:23:52;10.05;;;5.95;;
48596;SDS011;34382;43.160;24.148;2023-04-24T00:25:24;12.00;;;6.33;;
48596;SDS011;34382;43.160;24.148;2023-04-24T00:26:57;12.48;;;6.43;;
48596;SDS011;34382;43.160;24.148;2023-04-24T00:28:29;10.63;;;5.95;;
48596;SDS011;34382;43.160;24.148;2023-04-24T00:30:01;13.27;;;6.03;;
48596;SDS011;34382;43.160;24.148;2023-04-24T00:31:34;12.18;;;6.70;;
48596;SDS011;34382;43.160;24.148;2023-04-24T00:33:06;11.05;;;6.40;;
48596;SDS011;34382;43.160;24.148;2023-04-24T00:34:38;11.13;;;6.93;;
48596;SDS011;34382;43.160;24.148;2023-04-24T00:36:10;10.32;;;6.03;;
48596;SDS011;34382;43.160;24.148;2023-04-24T00:37:42;12.07;;;6.82;;
48596;SDS011;34382;43.160;24.148;2023-04-24T00:39:15;11.02;;;6.13;;
48596;SDS011;34382;43.160;24.148;2023-04-24T00:40:48;13.02;;;6.93;;
48596;SDS011;34382;43.160;24.148;2023-04-24T00:42:21;12.18;;;7.20;;
48596;SDS011;34382;43.160;24.148;2023-04-24T00:43:53;12.63;;;7.78;;
48596;SDS011;34382;43.160;24.148;2023-04-24T00:45:25;12.68;;;7.47;;
48596;SDS011;34382;43.160;24.148;2023-04-24T00:46:57;12.27;;;7.55;;
48596;SDS011;34382;43.160;24.148;2023-04-24T00:48:30;13.10;;;7.28;;
48596;SDS011;34382;43.160;24.148;2023-04-24T00:50:03;13.13;;;7.43;;
48596;SDS011;34382;43.160;24.148;2023-04-24T00:51:39;12.23;;;6.82;;
48596;SDS011;34382;43.160;24.148;2023-04-24T00:53:12;11.98;;;7.05;;
48596;SDS011;34382;43.160;24.148;2023-04-24T00:54:44;11.20;;;6.93;;
48596;SDS011;34382;43.160;24.148;2023-04-24T00:56:17;10.35;;;6.85;;
48596;SDS011;34382;43.160;24.148;2023-04-24T00:57:50;11.45;;;6.95;;
48596;SDS011;34382;43.160;24.148;2023-04-24T00:59:23;13.40;;;6.82;;
48596;SDS011;34382;43.160;24.148;2023-04-24T01:00:54;11.52;;;7.15;;
48596;SDS011;34382;43.160;24.148;2023-04-24T01:02:29;11.77;;;7.10;;
48596;SDS011;34382;43.160;24.148;2023-04-24T01:04:01;12.73;;;7.05;;
48596;SDS011;34382;43.160;24.148;2023-04-24T01:05:34;11.80;;;7.00;;
48596;SDS011;34382;43.160;24.148;2023-04-24T01:07:06;10.85;;;6.70;;
48596;SDS011;34382;43.160;24.148;2023-04-24T01:08:42;11.63;;;6.82;;
48596;SDS011;34382;43.160;24.148;2023-04-24T01:10:18;12.60;;;7.25;;
48596;SDS011;34382;43.160;24.148;2023-04-24T01:11:51;12.73;;;7.22;;
48596;SDS011;34382;43.160;24.148;2023-04-24T01:13:24;13.88;;;7.38;;
48596;SDS011;34382;43.160;24.148;2023-04-24T01:14:56;13.18;;;7.72;;
48596;SDS011;34382;43.160;24.148;2023-04-24T01:16:29;11.82;;;6.30;;
48596;SDS011;34382;43.160;24.148;2023-04-24T01:18:01;12.05;;;7.43;;
48596;SDS011;34382;43.160;24.148;2023-04-24T01:19:34;14.38;;;8.10;;
48596;SDS011;34382;43.160;24.148;2023-04-24T01:21:06;14.18;;;8.02;;
48596;SDS011;34382;43.160;24.148;2023-04-24T01:22:40;12.20;;;7.22;;
48596;SDS011;34382;43.160;24.148;2023-04-24T01:24:12;11.32;;;6.88;;
48596;SDS011;34382;43.160;24.148;2023-04-24T01:25:45;14.88;;;7.50;;
48596;SDS011;34382;43.160;24.148;2023-04-24T01:27:17;12.95;;;7.22;;
48596;SDS011;34382;43.160;24.148;2023-04-24T01:28:49;13.40;;;6.63;;
48596;SDS011;34382;43.160;24.148;2023-04-24T01:30:21;11.10;;;6.65;;
48596;SDS011;34382;43.160;24.148;2023-04-24T01:31:54;12.30;;;7.40;;
48596;SDS011;34382;43.160;24.148;2023-04-24T01:33:26;11.45;;;7.13;;
48596;SDS011;34382;43.160;24.148;2023-04-24T01:34:59;11.48;;;6.07;;
48596;SDS011;34382;43.160;24.148;2023-04-24T01:36:31;12.30;;;7.13;;
48596;SDS011;34382;43.160;24.148;2023-04-24T01:38:04;11.52;;;6.43;;
48596;SDS011;34382;43.160;24.148;2023-04-24T01:39:37;13.45;;;6.30;;
48596;SDS011;34382;43.160;24.148;2023-04-24T01:41:10;10.90;;;6.65;;
48596;SDS011;34382;43.160;24.148;2023-04-24T01:42:42;9.57;;;5.97;;
48596;SDS011;34382;43.160;24.148;2023-04-24T01:44:14;13.88;;;6.97;;
48596;SDS011;34382;43.160;24.148;2023-04-24T01:45:46;11.48;;;6.65;;
48596;SDS011;34382;43.160;24.148;2023-04-24T01:47:18;11.40;;;6.55;;
48596;SDS011;34382;43.160;24.148;2023-04-24T01:48:51;11.45;;;7.43;;
48596;SDS011;34382;43.160;24.148;2023-04-24T01:50:23;11.45;;;6.65;;
48596;SDS011;34382;43.160;24.148;2023-04-24T01:51:56;11.85;;;7.57;;
48596;SDS011;34382;43.160;24.148;2023-04-24T01:53:28;13.63;;;7.97;;
48596;SDS011;34382;43.160;24.148;2023-04-24T01:55:00;12.75;;;7.50;;
48596;SDS011;34382;43.160;24.148;2023-04-24T01:56:35;14.60;;;8.38;;
48596;SDS011;34382;43.160;24.148;2023-04-24T01:58:08;12.32;;;7.47;;
48596;SDS011;34382;43.160;24.148;2023-04-24T01:59:40;12.25;;;7.60;;
48596;SDS011;34382;43.160;24.148;2023-04-24T02:01:19;11.90;;;7.32;;
48596;SDS011;34382;43.160;24.148;2023-04-24T02:02:52;11.55;;;7.60;;
48596;SDS011;34382;43.160;24.148;2023-04-24T02:04:25;13.30;;;7.60;;
48596;SDS011;34382;43.160;24.148;2023-04-24T02:05:57;12.18;;;7.40;;
48596;SDS011;34382;43.160;24.148;2023-04-24T02:07:29;14.63;;;8.05;;
48596;SDS011;34382;43.160;24.148;2023-04-24T02:09:02;15.20;;;8.57;;
48596;SDS011;34382;43.160;24.148;2023-04-24T02:10:34;13.02;;;8.20;;
48596;SDS011;34382;43.160;24.148;2023-04-24T02:12:07;12.00;;;7.60;;
48596;SDS011;34382;43.160;24.148;2023-04-24T02:13:39;12.35;;;7.55;;
48596;SDS011;34382;43.160;24.148;2023-04-24T02:15:11;12.77;;;8.05;;
48596;SDS011;34382;43.160;24.148;2023-04-24T02:16:44;12.60;;;8.18;;
48596;SDS011;34382;43.160;24.148;2023-04-24T02:18:16;13.73;;;8.23;;
48596;SDS011;34382;43.160;24.148;2023-04-24T02:19:48;12.52;;;8.02;;
48596;SDS011;34382;43.160;24.148;2023-04-24T02:21:20;12.48;;;8.55;;
48596;SDS011;34382;43.160;24.148;2023-04-24T02:22:52;12.30;;;8.00;;
48596;SDS011;34382;43.160;24.148;2023-04-24T02:24:25;14.57;;;9.20;;
48596;SDS011;34382;43.160;24.148;2023-04-24T02:25:57;12.35;;;8.15;;
48596;SDS011;34382;43.160;24.148;2023-04-24T02:27:29;13.65;;;7.97;;
48596;SDS011;34382;43.160;24.148;2023-04-24T02:29:01;13.02;;;7.78;;
48596;SDS011;34382;43.160;24.148;2023-04-24T02:30:33;12.93;;;7.78;;
48596;SDS011;34382;43.160;24.148;2023-04-24T02:32:07;12.65;;;7.57;;
48596;SDS011;34382;43.160;24.148;2023-04-24T02:33:43;12.32;;;7.63;;
48596;SDS011;34382;43.160;24.148;2023-04-24T02:35:15;12.98;;;8.10;;
48596;SDS011;34382;43.160;24.148;2023-04-24T02:36:50;14.35;;;9.32;;
48596;SDS011;34382;43.160;24.148;2023-04-24T02:38:22;15.07;;;9.07;;
48596;SDS011;34382;43.160;24.148;2023-04-24T02:39:54;13.20;;;8.40;;
48596;SDS011;34382;43.160;24.148;2023-04-24T02:41:27;13.07;;;7.80;;
48596;SDS011;34382;43.160;24.148;2023-04-24T02:43:03;14.85;;;8.65;;
48596;SDS011;34382;43.160;24.148;2023-04-24T02:44:35;11.30;;;7.53;;
48596;SDS011;34382;43.160;24.148;2023-04-24T02:46:07;12.82;;;8.30;;
48596;SDS011;34382;43.160;24.148;2023-04-24T02:47:39;13.77;;;8.05;;
48596;SDS011;34382;43.160;24.148;2023-04-24T02:49:11;13.15;;;8.73;;
48596;SDS011;34382;43.160;24.148;2023-04-24T02:50:43;13.45;;;7.63;;
48596;SDS011;34382;43.160;24.148;2023-04-24T02:52:16;13.80;;;8.20;;
48596;SDS011;34382;43.160;24.148;2023-04-24T02:53:48;12.10;;;8.43;;
48596;SDS011;34382;43.160;24.148;2023-04-24T02:55:20;12.13;;;8.23;;
48596;SDS011;34382;43.160;24.148;2023-04-24T02:56:52;13.23;;;8.90;;
48596;SDS011;34382;43.160;24.148;2023-04-24T02:58:24;12.82;;;8.15;;
48596;SDS011;34382;43.160;24.148;2023-04-24T02:59:56;13.02;;;8.35;;
48596;SDS011;34382;43.160;24.148;2023-04-24T03:01:29;14.00;;;8.13;;
48596;SDS011;34382;43.160;24.148;2023-04-24T03:03:01;14.10;;;8.53;;
48596;SDS011;34382;43.160;24.148;2023-04-24T03:04:34;13.63;;;8.95;;
48596;SDS011;34382;43.160;24.148;2023-04-24T03:06:07;12.88;;;8.90;;
48596;SDS011;34382;43.160;24.148;2023-04-24T03:07:39;12.02;;;8.27;;
48596;SDS011;34382;43.160;24.148;2023-04-24T03:09:11;15.13;;;8.60;;
48596;SDS011;34382;43.160;24.148;2023-04-24T03:10:44;14.15;;;8.30;;
48596;SDS011;34382;43.160;24.148;2023-04-24T03:12:18;11.80;;;7.88;;
48596;SDS011;34382;43.160;24.148;2023-04-24T03:13:50;15.43;;;9.02;;
48596;SDS011;34382;43.160;24.148;2023-04-24T03:15:22;15.65;;;9.38;;
48596;SDS011;34382;43.160;24.148;2023-04-24T03:16:55;12.45;;;8.10;;
48596;SDS011;34382;43.160;24.148;2023-04-24T03:18:27;12.13;;;8.75;;
48596;SDS011;34382;43.160;24.148;2023-04-24T03:19:59;16.92;;;9.30;;
48596;SDS011;34382;43.160;24.148;2023-04-24T03:21:31;13.65;;;8.93;;
48596;SDS011;34382;43.160;24.148;2023-04-24T03:23:03;13.23;;;8.75;;
48596;SDS011;34382;43.160;24.148;2023-04-24T03:24:36;12.93;;;8.48;;
48596;SDS011;34382;43.160;24.148;2023-04-24T03:26:08;15.18;;;9.18;;
48596;SDS011;34382;43.160;24.148;2023-04-24T03:27:40;13.52;;;9.23;;
48596;SDS011;34382;43.160;24.148;2023-04-24T03:29:13;14.35;;;9.35;;
48596;SDS011;34382;43.160;24.148;2023-04-24T03:30:45;12.95;;;9.05;;
48596;SDS011;34382;43.160;24.148;2023-04-24T03:32:17;14.80;;;9.35;;
48596;SDS011;34382;43.160;24.148;2023-04-24T03:33:49;13.63;;;8.73;;
48596;SDS011;34382;43.160;24.148;2023-04-24T03:35:22;12.65;;;8.75;;
48596;SDS011;34382;43.160;24.148;2023-04-24T03:36:54;12.80;;;8.43;;
48596;SDS011;34382;43.160;24.148;2023-04-24T03:38:27;13.60;;;9.00;;
48596;SDS011;34382;43.160;24.148;2023-04-24T03:39:59;14.27;;;8.95;;
48596;SDS011;34382;43.160;24.148;2023-04-24T03:41:31;13.97;;;8.77;;
48596;SDS011;34382;43.160;24.148;2023-04-24T03:43:03;12.88;;;8.65;;
48596;SDS011;34382;43.160;24.148;2023-04-24T03:44:36;12.02;;;8.52;;
48596;SDS011;34382;43.160;24.148;2023-04-24T03:46:09;14.23;;;8.98;;
48596;SDS011;34382;43.160;24.148;2023-04-24T03:47:41;14.27;;;8.93;;
48596;SDS011;34382;43.160;24.148;2023-04-24T03:49:13;17.90;;;9.48;;
48596;SDS011;34382;43.160;24.148;2023-04-24T03:50:45;12.15;;;8.63;;
48596;SDS011;34382;43.160;24.148;2023-04-24T03:52:17;13.40;;;8.93;;
48596;SDS011;34382;43.160;24.148;2023-04-24T03:53:50;14.02;;;8.60;;
48596;SDS011;34382;43.160;24.148;2023-04-24T03:55:22;14.18;;;8.77;;
48596;SDS011;34382;43.160;24.148;2023-04-24T03:56:54;14.05;;;8.15;;
48596;SDS011;34382;43.160;24.148;2023-04-24T03:58:26;12.73;;;8.40;;
48596;SDS011;34382;43.160;24.148;2023-04-24T03:59:58;15.15;;;9.10;;
48596;SDS011;34382;43.160;24.148;2023-04-24T04:01:31;14.40;;;8.88;;
48596;SDS011;34382;43.160;24.148;2023-04-24T04:03:03;13.23;;;8.52;;
48596;SDS011;34382;43.160;24.148;2023-04-24T04:04:36;13.82;;;8.55;;
48596;SDS011;34382;43.160;24.148;2023-04-24T04:06:08;14.20;;;8.60;;
48596;SDS011;34382;43.160;24.148;2023-04-24T04:07:42;14.23;;;8.55;;
48596;SDS011;34382;43.160;24.148;2023-04-24T04:09:14;14.00;;;8.27;;
48596;SDS011;34382;43.160;24.148;2023-04-24T04:10:47;13.20;;;8.25;;
48596;SDS011;34382;43.160;24.148;2023-04-24T04:12:19;16.55;;;9.73;;
48596;SDS011;34382;43.160;24.148;2023-04-24T04:13:51;12.38;;;8.20;;
48596;SDS011;34382;43.160;24.148;2023-04-24T04:15:23;13.65;;;9.07;;
48596;SDS011;34382;43.160;24.148;2023-04-24T04:16:55;13.00;;;8.55;;
48596;SDS011;34382;43.160;24.148;2023-04-24T04:18:28;12.43;;;9.45;;
48596;SDS011;34382;43.160;24.148;2023-04-24T04:20:00;12.40;;;8.40;;
48596;SDS011;34382;43.160;24.148;2023-04-24T04:21:33;14.50;;;10.25;;
48596;SDS011;34382;43.160;24.148;2023-04-24T04:23:05;15.30;;;10.00;;
48596;SDS011;34382;43.160;24.148;2023-04-24T04:24:37;14.52;;;9.82;;
48596;SDS011;34382;43.160;24.148;2023-04-24T04:26:12;14.93;;;9.98;;
48596;SDS011;34382;43.160;24.148;2023-04-24T04:27:44;13.85;;;9.15;;
48596;SDS011;34382;43.160;24.148;2023-04-24T04:29:19;15.27;;;10.18;;
48596;SDS011;34382;43.160;24.148;2023-04-24T04:30:51;13.70;;;9.23;;
48596;SDS011;34382;43.160;24.148;2023-04-24T04:32:27;20.00;;;14.15;;
48596;SDS011;34382;43.160;24.148;2023-04-24T04:33:59;14.48;;;10.18;;
48596;SDS011;34382;43.160;24.148;2023-04-24T04:35:33;13.68;;;8.80;;
48596;SDS011;34382;43.160;24.148;2023-04-24T04:37:05;13.95;;;9.10;;
48596;SDS011;34382;43.160;24.148;2023-04-24T04:38:38;15.10;;;9.30;;
48596;SDS011;34382;43.160;24.148;2023-04-24T04:40:13;13.98;;;9.38;;
48596;SDS011;34382;43.160;24.148;2023-04-24T04:41:45;11.77;;;8.48;;
48596;SDS011;34382;43.160;24.148;2023-04-24T04:43:20;14.77;;;9.15;;
48596;SDS011;34382;43.160;24.148;2023-04-24T04:44:52;16.27;;;9.45;;
48596;SDS011;34382;43.160;24.148;2023-04-24T04:46:25;14.23;;;9.32;;
48596;SDS011;34382;43.160;24.148;2023-04-24T04:47:58;14.07;;;9.18;;
48596;SDS011;34382;43.160;24.148;2023-04-24T04:49:34;13.15;;;8.68;;
48596;SDS011;34382;43.160;24.148;2023-04-24T04:51:06;14.20;;;9.75;;
48596;SDS011;34382;43.160;24.148;2023-04-24T04:52:38;14.00;;;9.45;;
48596;SDS011;34382;43.160;24.148;2023-04-24T04:54:10;15.93;;;9.40;;
48596;SDS011;34382;43.160;24.148;2023-04-24T04:55:42;15.43;;;9.25;;
48596;SDS011;34382;43.160;24.148;2023-04-24T04:57:14;13.20;;;8.73;;
48596;SDS011;34382;43.160;24.148;2023-04-24T04:58:46;16.38;;;9.60;;
48596;SDS011;34382;43.160;24.148;2023-04-24T05:00:18;13.30;;;9.18;;
48596;SDS011;34382;43.160;24.148;2023-04-24T05:01:51;16.88;;;11.18;;
48596;SDS011;34382;43.160;24.148;2023-04-24T05:03:23;15.68;;;11.25;;
48596;SDS011;34382;43.160;24.148;2023-04-24T05:04:55;17.77;;;10.85;;
48596;SDS011;34382;43.160;24.148;2023-04-24T05:06:28;17.27;;;10.53;;
48596;SDS011;34382;43.160;24.148;2023-04-24T05:08:00;16.95;;;11.55;;
48596;SDS011;34382;43.160;24.148;2023-04-24T05:09:32;15.80;;;10.80;;
48596;SDS011;34382;43.160;24.148;2023-04-24T05:11:04;13.93;;;9.75;;
48596;SDS011;34382;43.160;24.148;2023-04-24T05:12:37;14.23;;;9.80;;
48596;SDS011;34382;43.160;24.148;2023-04-24T05:14:10;13.65;;;9.80;;
48596;SDS011;34382;43.160;24.148;2023-04-24T05:15:44;13.48;;;9.70;;
48596;SDS011;34382;43.160;24.148;2023-04-24T05:17:16;17.25;;;10.02;;
48596;SDS011;34382;43.160;24.148;2023-04-24T05:18:48;14.47;;;9.23;;
48596;SDS011;34382;43.160;24.148;2023-04-24T05:20:20;15.23;;;9.82;;
48596;SDS011;34382;43.160;24.148;2023-04-24T05:21:53;12.63;;;9.40;;
48596;SDS011;34382;43.160;24.148;2023-04-24T05:23:25;13.73;;;9.95;;
48596;SDS011;34382;43.160;24.148;2023-04-24T05:24:57;15.93;;;10.60;;
48596;SDS011;34382;43.160;24.148;2023-04-24T05:26:29;15.32;;;10.38;;
48596;SDS011;34382;43.160;24.148;2023-04-24T05:28:03;13.80;;;9.52;;
48596;SDS011;34382;43.160;24.148;2023-04-24T05:29:36;14.45;;;9.38;;
48596;SDS011;34382;43.160;24.148;2023-04-24T05:31:08;13.85;;;9.60;;
48596;SDS011;34382;43.160;24.148;2023-04-24T05:32:41;13.73;;;9.27;;
48596;SDS011;34382;43.160;24.148;2023-04-24T05:34:16;15.00;;;10.48;;
48596;SDS011;34382;43.160;24.148;2023-04-24T05:35:48;14.35;;;9.77;;
48596;SDS011;34382;43.160;24.148;2023-04-24T05:37:21;14.07;;;9.82;;
48596;SDS011;34382;43.160;24.148;2023-04-24T05:38:53;15.15;;;10.38;;
48596;SDS011;34382;43.160;24.148;2023-04-24T05:40:25;14.32;;;9.52;;
48596;SDS011;34382;43.160;24.148;2023-04-24T05:41:57;16.63;;;9.85;;
48596;SDS011;34382;43.160;24.148;2023-04-24T05:43:30;15.17;;;9.27;;
48596;SDS011;34382;43.160;24.148;2023-04-24T05:45:02;16.05;;;9.73;;
48596;SDS011;34382;43.160;24.148;2023-04-24T05:46:35;13.30;;;9.07;;
48596;SDS011;34382;43.160;24.148;2023-04-24T05:48:07;13.57;;;9.50;;
48596;SDS011;34382;43.160;24.148;2023-04-24T05:49:39;13.43;;;9.52;;
48596;SDS011;34382;43.160;24.148;2023-04-24T05:51:12;16.73;;;9.75;;
48596;SDS011;34382;43.160;24.148;2023-04-24T05:52:44;12.80;;;9.13;;
48596;SDS011;34382;43.160;24.148;2023-04-24T05:54:16;15.13;;;9.57;;
48596;SDS011;34382;43.160;24.148;2023-04-24T05:55:48;13.13;;;8.68;;
48596;SDS011;34382;43.160;24.148;2023-04-24T05:57:20;12.88;;;9.70;;
48596;SDS011;34382;43.160;24.148;2023-04-24T05:58:52;15.15;;;9.25;;
48596;SDS011;34382;43.160;24.148;2023-04-24T06:00:25;13.70;;;8.43;;
48596;SDS011;34382;43.160;24.148;2023-04-24T06:01:57;13.98;;;9.07;;
48596;SDS011;34382;43.160;24.148;2023-04-24T06:03:29;14.07;;;9.18;;
48596;SDS011;34382;43.160;24.148;2023-04-24T06:05:02;12.90;;;8.88;;
48596;SDS011;34382;43.160;24.148;2023-04-24T06:06:36;13.80;;;8.80;;
48596;SDS011;34382;43.160;24.148;2023-04-24T06:08:09;13.30;;;8.55;;
48596;SDS011;34382;43.160;24.148;2023-04-24T06:09:41;12.50;;;8.48;;
48596;SDS011;34382;43.160;24.148;2023-04-24T06:11:14;12.10;;;8.13;;
48596;SDS011;34382;43.160;24.148;2023-04-24T06:12:46;13.20;;;9.00;;
48596;SDS011;34382;43.160;24.148;2023-04-24T06:14:18;12.18;;;7.55;;
48596;SDS011;34382;43.160;24.148;2023-04-24T06:15:52;11.93;;;7.78;;
48596;SDS011;34382;43.160;24.148;2023-04-24T06:17:24;11.70;;;7.72;;
48596;SDS011;34382;43.160;24.148;2023-04-24T06:18:56;12.25;;;7.85;;
48596;SDS011;34382;43.160;24.148;2023-04-24T06:20:28;11.93;;;7.80;;
48596;SDS011;34382;43.160;24.148;2023-04-24T06:22:01;13.48;;;8.30;;
48596;SDS011;34382;43.160;24.148;2023-04-24T06:23:36;13.65;;;7.88;;
48596;SDS011;34382;43.160;24.148;2023-04-24T06:25:08;12.98;;;7.57;;
48596;SDS011;34382;43.160;24.148;2023-04-24T06:26:41;13.65;;;9.02;;
48596;SDS011;34382;43.160;24.148;2023-04-24T06:28:13;11.75;;;8.13;;
48596;SDS011;34382;43.160;24.148;2023-04-24T06:29:45;12.07;;;7.97;;
48596;SDS011;34382;43.160;24.148;2023-04-24T06:31:17;15.00;;;8.60;;
48596;SDS011;34382;43.160;24.148;2023-04-24T06:32:50;12.88;;;8.48;;
48596;SDS011;34382;43.160;24.148;2023-04-24T06:34:22;13.80;;;8.57;;
48596;SDS011;34382;43.160;24.148;2023-04-24T06:35:55;13.70;;;8.38;;
48596;SDS011;34382;43.160;24.148;2023-04-24T06:37:27;12.15;;;7.88;;
48596;SDS011;34382;43.160;24.148;2023-04-24T06:38:59;14.25;;;8.18;;
48596;SDS011;34382;43.160;24.148;2023-04-24T06:40:31;13.67;;;7.57;;
48596;SDS011;34382;43.160;24.148;2023-04-24T06:42:05;11.15;;;7.43;;
48596;SDS011;34382;43.160;24.148;2023-04-24T06:43:37;12.38;;;7.97;;
48596;SDS011;34382;43.160;24.148;2023-04-24T06:45:09;14.35;;;8.30;;
48596;SDS011;34382;43.160;24.148;2023-04-24T06:46:42;13.20;;;7.90;;
48596;SDS011;34382;43.160;24.148;2023-04-24T06:48:15;11.68;;;7.47;;
48596;SDS011;34382;43.160;24.148;2023-04-24T06:49:47;14.80;;;8.45;;
48596;SDS011;34382;43.160;24.148;2023-04-24T06:51:19;12.85;;;7.10;;
48596;SDS011;34382;43.160;24.148;2023-04-24T06:52:51;12.25;;;7.43;;
48596;SDS011;34382;43.160;24.148;2023-04-24T06:54:23;11.50;;;7.30;;
48596;SDS011;34382;43.160;24.148;2023-04-24T06:55:55;10.93;;;7.65;;
48596;SDS011;34382;43.160;24.148;2023-04-24T06:57:28;13.13;;;7.70;;
48596;SDS011;34382;43.160;24.148;2023-04-24T06:59:00;12.00;;;7.40;;
48596;SDS011;34382;43.160;24.148;2023-04-24T07:00:32;10.93;;;6.80;;
48596;SDS011;34382;43.160;24.148;2023-04-24T07:02:04;13.23;;;7.65;;
48596;SDS011;34382;43.160;24.148;2023-04-24T07:03:37;11.73;;;7.80;;
48596;SDS011;34382;43.160;24.148;2023-04-24T07:05:10;11.07;;;7.37;;
48596;SDS011;34382;43.160;24.148;2023-04-24T07:06:42;12.70;;;7.30;;
48596;SDS011;34382;43.160;24.148;2023-04-24T07:08:15;12.52;;;7.43;;
48596;SDS011;34382;43.160;24.148;2023-04-24T07:09:49;9.85;;;6.80;;
48596;SDS011;34382;43.160;24.148;2023-04-24T07:11:22;12.57;;;7.40;;
48596;SDS011;34382;43.160;24.148;2023-04-24T07:12:54;11.55;;;7.13;;
48596;SDS011;34382;43.160;24.148;2023-04-24T07:14:28;11.48;;;6.97;;
48596;SDS011;34382;43.160;24.148;2023-04-24T07:16:00;16.15;;;8.23;;
48596;SDS011;34382;43.160;24.148;2023-04-24T07:17:32;12.00;;;7.43;;
48596;SDS011;34382;43.160;24.148;2023-04-24T07:19:05;13.35;;;7.60;;
48596;SDS011;34382;43.160;24.148;2023-04-24T07:20:37;11.95;;;7.82;;
48596;SDS011;34382;43.160;24.148;2023-04-24T07:22:10;16.10;;;9.13;;
48596;SDS011;34382;43.160;24.148;2023-04-24T07:23:48;16.65;;;10.90;;
48596;SDS011;34382;43.160;24.148;2023-04-24T07:25:20;24.13;;;14.98;;
48596;SDS011;34382;43.160;24.148;2023-04-24T07:26:52;33.60;;;18.92;;
48596;SDS011;34382;43.160;24.148;2023-04-24T07:28:25;31.60;;;18.48;;
48596;SDS011;34382;43.160;24.148;2023-04-24T07:29:57;34.40;;;21.80;;
48596;SDS011;34382;43.160;24.148;2023-04-24T07:31:30;41.65;;;26.23;;
48596;SDS011;34382;43.160;24.148;2023-04-24T07:33:02;35.40;;;21.40;;
48596;SDS011;34382;43.160;24.148;2023-04-24T07:34:34;25.63;;;16.25;;
48596;SDS011;34382;43.160;24.148;2023-04-24T07:36:07;24.52;;;13.52;;
48596;SDS011;34382;43.160;24.148;2023-04-24T07:37:39;23.67;;;13.70;;
48596;SDS011;34382;43.160;24.148;2023-04-24T07:39:11;19.10;;;11.25;;
48596;SDS011;34382;43.160;24.148;2023-04-24T07:40:44;18.23;;;10.50;;
48596;SDS011;34382;43.160;24.148;2023-04-24T07:42:18;15.50;;;8.82;;
48596;SDS011;34382;43.160;24.148;2023-04-24T07:43:51;16.08;;;9.05;;
48596;SDS011;34382;43.160;24.148;2023-04-24T07:45:27;14.75;;;8.52;;
48596;SDS011;34382;43.160;24.148;2023-04-24T07:46:59;12.77;;;7.80;;
48596;SDS011;34382;43.160;24.148;2023-04-24T07:48:32;13.50;;;8.23;;
48596;SDS011;34382;43.160;24.148;2023-04-24T07:50:04;11.90;;;7.15;;
48596;SDS011;34382;43.160;24.148;2023-04-24T07:51:37;12.38;;;7.13;;
48596;SDS011;34382;43.160;24.148;2023-04-24T07:53:10;12.50;;;7.72;;
48596;SDS011;34382;43.160;24.148;2023-04-24T07:54:42;12.85;;;6.95;;
48596;SDS011;34382;43.160;24.148;2023-04-24T07:56:15;13.15;;;6.22;;
48596;SDS011;34382;43.160;24.148;2023-04-24T07:57:47;11.27;;;6.25;;
48596;SDS011;34382;43.160;24.148;2023-04-24T07:59:19;11.70;;;6.43;;
48596;SDS011;34382;43.160;24.148;2023-04-24T08:00:51;13.43;;;7.70;;
48596;SDS011;34382;43.160;24.148;2023-04-24T08:02:23;11.43;;;6.20;;
48596;SDS011;34382;43.160;24.148;2023-04-24T08:03:58;10.63;;;6.43;;
48596;SDS011;34382;43.160;24.148;2023-04-24T08:05:31;11.30;;;6.30;;
48596;SDS011;34382;43.160;24.148;2023-04-24T08:07:03;9.98;;;5.55;;
48596;SDS011;34382;43.160;24.148;2023-04-24T08:08:35;11.73;;;5.53;;
48596;SDS011;34382;43.160;24.148;2023-04-24T08:10:09;10.73;;;6.03;;
48596;SDS011;34382;43.160;24.148;2023-04-24T08:11:43;10.13;;;6.25;;
48596;SDS011;34382;43.160;24.148;2023-04-24T08:13:15;11.60;;;6.10;;
48596;SDS011;34382;43.160;24.148;2023-04-24T08:14:47;9.77;;;6.03;;
48596;SDS011;34382;43.160;24.148;2023-04-24T08:16:19;11.02;;;6.15;;
48596;SDS011;34382;43.160;24.148;2023-04-24T08:17:52;9.88;;;5.60;;
48596;SDS011;34382;43.160;24.148;2023-04-24T08:19:24;11.38;;;6.35;;
48596;SDS011;34382;43.160;24.148;2023-04-24T08:20:57;12.32;;;6.03;;
48596;SDS011;34382;43.160;24.148;2023-04-24T08:22:33;10.32;;;5.43;;
48596;SDS011;34382;43.160;24.148;2023-04-24T08:24:05;11.02;;;6.22;;
48596;SDS011;34382;43.160;24.148;2023-04-24T08:25:39;9.88;;;5.47;;
48596;SDS011;34382;43.160;24.148;2023-04-24T08:27:11;9.95;;;5.90;;
48596;SDS011;34382;43.160;24.148;2023-04-24T08:28:43;10.27;;;5.88;;
48596;SDS011;34382;43.160;24.148;2023-04-24T08:30:16;9.15;;;5.43;;
48596;SDS011;34382;43.160;24.148;2023-04-24T08:31:48;10.18;;;5.55;;
48596;SDS011;34382;43.160;24.148;2023-04-24T08:33:23;9.63;;;5.65;;
48596;SDS011;34382;43.160;24.148;2023-04-24T08:34:56;9.60;;;5.30;;
48596;SDS011;34382;43.160;24.148;2023-04-24T08:36:29;9.63;;;4.95;;
48596;SDS011;34382;43.160;24.148;2023-04-24T08:38:17;9.35;;;5.80;;
48596;SDS011;34382;43.160;24.148;2023-04-24T08:39:49;10.95;;;5.15;;
48596;SDS011;34382;43.160;24.148;2023-04-24T08:41:22;9.95;;;5.30;;
48596;SDS011;34382;43.160;24.148;2023-04-24T08:42:55;9.60;;;4.97;;
48596;SDS011;34382;43.160;24.148;2023-04-24T08:44:28;11.38;;;5.20;;
48596;SDS011;34382;43.160;24.148;2023-04-24T08:46:00;13.02;;;6.68;;
48596;SDS011;34382;43.160;24.148;2023-04-24T08:47:39;10.63;;;6.75;;
48596;SDS011;34382;43.160;24.148;2023-04-24T08:49:13;11.45;;;7.38;;
48596;SDS011;34382;43.160;24.148;2023-04-24T08:50:48;13.13;;;7.55;;
48596;SDS011;34382;43.160;24.148;2023-04-24T08:52:22;11.35;;;6.78;;
48596;SDS011;34382;43.160;24.148;2023-04-24T08:53:54;11.15;;;7.15;;
48596;SDS011;34382;43.160;24.148;2023-04-24T08:55:27;12.05;;;6.82;;
48596;SDS011;34382;43.160;24.148;2023-04-24T08:57:02;12.23;;;7.43;;
48596;SDS011;34382;43.160;24.148;2023-04-24T08:58:35;11.70;;;7.03;;
48596;SDS011;34382;43.160;24.148;2023-04-24T09:00:08;10.82;;;7.13;;
48596;SDS011;34382;43.160;24.148;2023-04-24T09:01:42;10.88;;;6.47;;